Time;durP1;ratioP1;P1;durP2;ratioP2;P2;SDS_P1;SDS_P2;PMS_P1;PMS_P2;Temp;Humidity;BMP_temperature;BMP_pressure;BME280_temperature;BME280_humidity;BME280_pressure;Samples;Min_cycle;Max_cycle;Signal;HPM_P1;HPM_P2
2021/11/29 00:01:57;;;;;;;2.58;0.40;;;12.00;59.10;;;;;;4960773;28;20043;-74
2021/11/29 00:04:23;;;;;;;1.50;0.38;;;12.00;58.90;;;;;;4977494;28;20117;-72
2021/11/29 00:06:49;;;;;;;1.98;0.52;;;11.90;60.10;;;;;;4961476;28;20057;-73
2021/11/29 00:09:15;;;;;;;4.95;0.65;;;11.90;60.10;;;;;;4960203;28;20418;-73
2021/11/29 00:11:41;;;;;;;3.92;0.82;;;11.90;60.40;;;;;;4960652;28;20057;-73
2021/11/29 00:14:07;;;;;;;3.50;0.60;;;11.80;60.10;;;;;;4977819;28;20366;-73
2021/11/29 00:16:33;;;;;;;4.35;0.88;;;11.80;61.10;;;;;;4977334;28;20054;-72
2021/11/29 00:18:59;;;;;;;3.22;0.40;;;11.80;60.80;;;;;;4977244;28;20051;-74
2021/11/29 00:21:25;;;;;;;4.68;0.63;;;11.80;60.10;;;;;;4960594;28;20046;-73
2021/11/29 00:23:51;;;;;;;1.63;0.30;;;11.70;60.70;;;;;;4960122;28;20134;-73
2021/11/29 00:26:21;;;;;;;2.13;0.47;;;11.80;60.00;;;;;;4960367;28;20062;-73
2021/11/29 00:28:47;;;;;;;6.40;0.95;;;11.70;60.20;;;;;;4960288;28;20054;-71
2021/11/29 00:31:13;;;;;;;1.75;0.20;;;11.70;60.20;;;;;;4977323;28;20054;-72
2021/11/29 00:33:39;;;;;;;2.25;0.43;;;11.70;60.50;;;;;;4977466;28;20073;-74
2021/11/29 00:36:05;;;;;;;3.58;0.60;;;11.70;60.90;;;;;;4977403;28;20074;-72
2021/11/29 00:38:31;;;;;;;3.75;0.45;;;11.70;60.80;;;;;;4977238;28;20501;-73
2021/11/29 00:40:57;;;;;;;1.50;0.30;;;11.70;60.80;;;;;;4969020;28;20152;-74
2021/11/29 00:43:23;;;;;;;4.35;0.50;;;11.60;61.50;;;;;;4977186;28;20125;-74
2021/11/29 00:45:49;;;;;;;4.22;0.50;;;11.70;61.40;;;;;;4976239;28;20136;-72
2021/11/29 00:48:15;;;;;;;3.30;0.60;;;11.60;61.50;;;;;;4975887;28;20447;-73
2021/11/29 00:50:40;;;;;;;3.53;0.43;;;11.60;61.40;;;;;;4976174;28;20462;-71
2021/11/29 00:53:08;;;;;;;2.70;0.70;;;11.60;61.00;;;;;;4976690;28;20488;-72
2021/11/29 00:55:34;;;;;;;2.55;0.47;;;11.50;60.80;;;;;;4976289;28;20046;-72
2021/11/29 00:58:00;;;;;;;1.88;0.35;;;11.50;61.10;;;;;;4976730;28;20053;-72
2021/11/29 01:00:27;;;;;;;1.92;0.73;;;11.50;61.20;;;;;;4975793;28;20142;-72
2021/11/29 01:02:54;;;;;;;2.70;0.52;;;11.50;60.80;;;;;;4977193;28;20122;-73
2021/11/29 01:05:20;;;;;;;1.52;0.43;;;11.50;61.20;;;;;;4976993;28;20060;-72
2021/11/29 01:07:47;;;;;;;1.48;0.30;;;11.60;61.50;;;;;;4975683;28;20082;-73
2021/11/29 01:10:16;;;;;;;2.78;0.40;;;11.60;61.10;;;;;;4975910;28;20538;-74
2021/11/29 01:12:42;;;;;;;4.07;0.47;;;11.60;61.60;;;;;;4976296;28;20069;-73
2021/11/29 01:15:11;;;;;;;2.42;0.30;;;11.60;61.20;;;;;;4976407;28;20355;-72
2021/11/29 01:17:37;;;;;;;2.13;0.40;;;11.60;61.40;;;;;;4975811;28;20359;-73
2021/11/29 01:20:09;;;;;;;2.72;0.28;;;11.50;61.40;;;;;;4975663;28;20466;-74
2021/11/29 01:22:36;;;;;;;3.45;0.65;;;11.50;61.70;;;;;;4976111;28;20055;-72
2021/11/29 01:25:02;;;;;;;2.80;0.60;;;11.40;61.90;;;;;;4975678;28;20053;-73
2021/11/29 01:27:27;;;;;;;2.35;0.43;;;11.40;62.20;;;;;;4975314;28;20089;-73
2021/11/29 01:29:53;;;;;;;4.88;0.65;;;11.50;62.90;;;;;;4976437;28;20090;-72
2021/11/29 01:32:19;;;;;;;4.82;0.70;;;11.40;62.30;;;;;;4975577;28;20110;-73
2021/11/29 01:34:44;;;;;;;4.53;0.65;;;11.50;61.90;;;;;;4976232;28;20070;-73
2021/11/29 01:37:10;;;;;;;3.15;0.30;;;11.50;62.70;;;;;;4976310;28;20090;-73
2021/11/29 01:39:36;;;;;;;1.70;0.20;;;11.40;62.40;;;;;;4975288;28;20101;-72
2021/11/29 01:42:03;;;;;;;3.53;0.60;;;11.40;62.00;;;;;;4976253;28;20472;-72
2021/11/29 01:44:28;;;;;;;2.35;0.50;;;11.40;61.90;;;;;;4959952;28;20047;-73
2021/11/29 01:46:54;;;;;;;1.50;0.13;;;11.40;62.20;;;;;;4976054;28;20066;-74
2021/11/29 01:49:20;;;;;;;0.90;0.10;;;11.30;62.00;;;;;;4976078;28;20046;-73
2021/11/29 01:51:46;;;;;;;1.77;0.30;;;11.40;61.60;;;;;;4959223;28;20061;-72
2021/11/29 01:54:13;;;;;;;4.07;0.50;;;11.40;62.90;;;;;;4959963;28;20051;-72
2021/11/29 01:56:39;;;;;;;2.60;0.50;;;11.40;62.50;;;;;;4976353;28;20054;-74
2021/11/29 01:59:05;;;;;;;3.22;0.32;;;11.30;62.40;;;;;;4959244;28;20101;-73
2021/11/29 02:01:32;;;;;;;2.10;0.20;;;11.40;62.60;;;;;;4959915;28;20120;-72
2021/11/29 02:03:59;;;;;;;3.40;0.52;;;11.40;62.70;;;;;;4959371;28;20133;-73
2021/11/29 02:06:27;;;;;;;2.58;0.20;;;11.40;63.10;;;;;;4963047;28;20466;-72
2021/11/29 02:08:53;;;;;;;3.67;0.45;;;11.50;63.60;;;;;;4962851;28;20473;-72
2021/11/29 02:11:21;;;;;;;2.83;0.40;;;11.40;62.60;;;;;;4962530;28;20046;-73
2021/11/29 02:13:47;;;;;;;2.13;0.38;;;11.40;63.10;;;;;;4975879;28;21307;-72
2021/11/29 02:16:13;;;;;;;4.88;0.52;;;11.30;63.10;;;;;;4960741;29;20474;-72
2021/11/29 02:18:40;;;;;;;3.35;0.40;;;11.40;63.30;;;;;;4943517;29;20482;-72
2021/11/29 02:21:09;;;;;;;2.42;0.40;;;11.50;63.40;;;;;;4943780;29;20066;-72
2021/11/29 02:23:40;;;;;;;2.05;0.43;;;11.60;63.80;;;;;;4943260;29;20059;-73
2021/11/29 02:26:07;;;;;;;2.05;0.45;;;11.70;63.90;;;;;;4943651;29;20058;-73
2021/11/29 02:28:35;;;;;;;3.00;0.30;;;11.70;63.60;;;;;;4959778;29;20462;-72
2021/11/29 02:31:01;;;;;;;3.70;0.60;;;11.70;63.80;;;;;;4959957;29;20130;-73
2021/11/29 02:33:28;;;;;;;2.78;0.52;;;11.80;63.90;;;;;;4960204;29;20055;-73
2021/11/29 02:35:54;;;;;;;5.60;0.85;;;11.80;63.70;;;;;;4959925;29;20515;-72
2021/11/29 02:38:20;;;;;;;1.95;0.40;;;11.80;63.60;;;;;;4960759;29;20054;-72
2021/11/29 02:40:46;;;;;;;2.85;0.52;;;11.90;63.60;;;;;;4953766;28;20058;-72
2021/11/29 02:43:12;;;;;;;2.53;0.50;;;11.80;63.70;;;;;;4962789;28;20090;-73
2021/11/29 02:45:37;;;;;;;2.50;0.50;;;11.80;63.80;;;;;;4962471;28;20086;-73
2021/11/29 02:48:04;;;;;;;1.83;0.50;;;11.80;63.60;;;;;;4978825;28;20050;-72
2021/11/29 02:50:36;;;;;;;2.35;0.20;;;11.80;63.50;;;;;;4979241;28;20342;-73
2021/11/29 02:53:04;;;;;;;2.95;0.43;;;11.90;63.90;;;;;;4962112;28;20058;-72
2021/11/29 02:55:30;;;;;;;2.30;0.52;;;11.90;64.10;;;;;;4978686;28;20128;-73
2021/11/29 02:57:56;;;;;;;1.58;0.52;;;12.00;63.70;;;;;;4961983;28;20067;-73
2021/11/29 03:00:21;;;;;;;1.73;0.60;;;12.00;64.20;;;;;;4978781;28;20056;-73
2021/11/29 03:03:08;;;;;;;2.97;0.57;;;12.00;64.20;;;;;;4979122;28;20350;-72
2021/11/29 03:05:35;;;;;;;7.70;1.17;;;12.10;63.50;;;;;;4961863;28;20082;-72
2021/11/29 03:08:02;;;;;;;3.28;0.45;;;12.10;64.30;;;;;;4961423;28;20061;-72
2021/11/29 03:10:28;;;;;;;3.95;0.90;;;12.10;64.20;;;;;;4961869;28;20356;-74
2021/11/29 03:12:54;;;;;;;3.67;0.73;;;12.10;63.90;;;;;;4961791;28;20061;-74
2021/11/29 03:15:21;;;;;;;3.47;0.50;;;12.10;63.70;;;;;;4962278;28;20383;-72
2021/11/29 03:17:46;;;;;;;3.97;0.55;;;12.20;64.00;;;;;;4961555;28;20537;-73
2021/11/29 03:20:13;;;;;;;3.53;0.75;;;12.20;63.80;;;;;;4961744;28;20046;-74
2021/11/29 03:22:39;;;;;;;5.85;0.70;;;12.20;63.80;;;;;;4961696;28;20057;-73
2021/11/29 03:25:06;;;;;;;3.03;0.60;;;12.20;63.50;;;;;;4978368;28;20047;-74
2021/11/29 03:27:32;;;;;;;2.90;0.35;;;12.20;63.40;;;;;;4961333;28;20058;-71
2021/11/29 03:29:58;;;;;;;2.40;0.68;;;12.20;63.70;;;;;;4978264;28;20066;-73
2021/11/29 03:32:24;;;;;;;3.45;0.52;;;12.20;63.60;;;;;;4978574;28;20042;-73
2021/11/29 03:34:50;;;;;;;3.83;0.50;;;12.20;63.50;;;;;;4978544;28;20055;-73
2021/11/29 03:37:17;;;;;;;2.97;0.40;;;12.20;64.10;;;;;;4961020;28;20093;-72
2021/11/29 03:39:44;;;;;;;1.98;0.40;;;12.20;64.30;;;;;;4977970;28;20061;-74
2021/11/29 03:42:10;;;;;;;3.30;0.57;;;12.30;64.70;;;;;;4961399;28;20046;-73
2021/11/29 03:44:37;;;;;;;1.77;0.30;;;12.30;64.30;;;;;;4961182;28;20057;-74
2021/11/29 03:47:05;;;;;;;1.95;0.30;;;12.30;64.60;;;;;;4978360;28;20051;-73
2021/11/29 03:49:30;;;;;;;2.55;0.25;;;12.30;64.70;;;;;;4960714;28;20066;-73
2021/11/29 03:51:56;;;;;;;5.43;0.55;;;12.40;64.50;;;;;;4961167;28;20378;-72
2021/11/29 03:54:22;;;;;;;1.85;0.50;;;12.40;64.50;;;;;;4978571;28;20055;-73
2021/11/29 03:56:49;;;;;;;2.22;0.30;;;12.40;64.70;;;;;;4960935;28;20062;-72
2021/11/29 03:59:15;;;;;;;2.38;0.20;;;12.50;64.60;;;;;;4960889;28;20055;-73
2021/11/29 04:01:42;;;;;;;1.25;0.22;;;12.50;64.70;;;;;;4977623;28;20058;-73
2021/11/29 04:04:08;;;;;;;1.60;0.30;;;12.50;64.50;;;;;;4977577;28;20466;-72
2021/11/29 04:06:34;;;;;;;2.30;0.30;;;12.50;64.10;;;;;;4961486;28;20086;-72
2021/11/29 04:09:02;;;;;;;1.90;0.28;;;12.50;64.40;;;;;;4960738;28;20059;-74
2021/11/29 04:11:28;;;;;;;2.33;0.40;;;12.50;64.60;;;;;;4960884;28;20078;-73
2021/11/29 04:13:54;;;;;;;0.90;0.20;;;12.50;64.30;;;;;;4977510;28;20054;-72
2021/11/29 04:16:19;;;;;;;1.10;0.35;;;12.50;64.50;;;;;;4960435;28;20489;-72
2021/11/29 04:18:46;;;;;;;1.13;0.30;;;12.60;64.60;;;;;;4977334;28;20054;-73
2021/11/29 04:21:14;;;;;;;1.75;0.20;;;12.60;64.50;;;;;;4960523;28;20051;-73
2021/11/29 04:23:43;;;;;;;1.10;0.10;;;12.60;64.30;;;;;;4960532;28;20089;-73
2021/11/29 04:26:11;;;;;;;3.10;0.20;;;12.60;64.30;;;;;;4977197;28;20061;-72
2021/11/29 04:28:37;;;;;;;1.58;0.15;;;12.60;64.60;;;;;;4959745;28;20062;-72
2021/11/29 04:31:02;;;;;;;1.88;0.30;;;12.60;64.50;;;;;;4977298;28;20047;-74
2021/11/29 04:33:28;;;;;;;2.22;0.20;;;12.60;64.50;;;;;;4960387;28;20046;-72
2021/11/29 04:35:54;;;;;;;1.10;0.25;;;12.70;64.40;;;;;;4960050;28;20426;-72
2021/11/29 04:38:19;;;;;;;0.77;0.10;;;12.70;64.40;;;;;;4960203;28;20043;-73
2021/11/29 04:40:45;;;;;;;2.35;0.20;;;12.70;64.30;;;;;;4975962;28;20101;-73
2021/11/29 04:43:11;;;;;;;0.90;0.13;;;12.80;64.50;;;;;;4960641;28;20043;-72
2021/11/29 04:45:38;;;;;;;2.38;0.20;;;12.80;64.40;;;;;;4972873;28;20127;-73
2021/11/29 04:48:04;;;;;;;2.45;0.10;;;12.80;64.30;;;;;;4976101;28;20055;-72
2021/11/29 04:50:30;;;;;;;2.92;0.20;;;12.80;64.20;;;;;;4976563;28;20053;-73
2021/11/29 04:52:56;;;;;;;1.05;0.10;;;12.80;64.10;;;;;;4977199;28;20093;-73
2021/11/29 04:55:22;;;;;;;2.53;0.30;;;12.80;64.30;;;;;;4960661;28;20050;-74
2021/11/29 04:57:47;;;;;;;1.85;0.17;;;12.80;64.20;;;;;;4959605;28;20057;-72
2021/11/29 05:00:18;;;;;;;1.05;0.28;;;12.80;63.90;;;;;;4959693;28;20062;-73
2021/11/29 05:02:45;;;;;;;1.98;0.20;;;12.90;64.30;;;;;;4976203;28;20046;-75
2021/11/29 05:05:11;;;;;;;3.83;0.40;;;12.90;63.90;;;;;;4976074;28;20137;-76
2021/11/29 05:07:36;;;;;;;1.65;0.20;;;13.00;63.60;;;;;;4942984;28;20436;-75
2021/11/29 05:10:04;;;;;;;2.65;0.30;;;13.00;63.70;;;;;;4976234;28;20378;-74
2021/11/29 05:12:30;;;;;;;4.35;0.20;;;13.00;64.30;;;;;;4976010;28;20050;-71
2021/11/29 05:15:07;;;;;;;2.10;0.40;;;13.00;65.00;;;;;;4958193;28;20050;-75
2021/11/29 05:17:33;;;;;;;3.05;0.20;;;13.10;64.20;;;;;;4959871;28;20047;-74
2021/11/29 05:19:59;;;;;;;4.57;0.30;;;13.20;64.00;;;;;;4976245;28;20057;-72
2021/11/29 05:22:25;;;;;;;7.53;0.93;;;13.10;63.40;;;;;;4974460;28;20035;-74
2021/11/29 05:24:51;;;;;;;3.55;0.30;;;13.50;64.30;;;;;;4974987;28;20441;-74
2021/11/29 05:27:20;;;;;;;5.63;0.30;;;13.80;64.40;;;;;;4975299;28;20061;-75
2021/11/29 05:29:48;;;;;;;4.40;0.45;;;14.10;64.30;;;;;;4976113;28;20035;-78
2021/11/29 05:32:14;;;;;;;4.57;0.47;;;14.40;64.10;;;;;;4974952;28;20081;-75
2021/11/29 05:34:40;;;;;;;9.10;0.52;;;14.60;64.20;;;;;;4976125;28;20450;-77
2021/11/29 05:37:06;;;;;;;6.30;0.40;;;14.80;63.60;;;;;;4978211;28;20120;-77
2021/11/29 05:39:31;;;;;;;5.65;0.80;;;15.00;63.20;;;;;;4987758;28;20085;-74
2021/11/29 05:41:57;;;;;;;5.18;0.50;;;15.10;63.10;;;;;;4979899;28;20050;-76
2021/11/29 05:44:23;;;;;;;8.45;0.73;;;15.30;63.20;;;;;;4962819;28;20047;-77
2021/11/29 05:46:48;;;;;;;4.45;0.40;;;15.50;63.30;;;;;;4979888;28;20046;-76
2021/11/29 05:49:14;;;;;;;8.73;0.63;;;15.60;63.20;;;;;;4979921;28;20097;-81
2021/11/29 05:51:40;;;;;;;4.25;0.63;;;15.70;63.30;;;;;;4969747;28;20124;-74
2021/11/29 05:54:06;;;;;;;10.00;0.40;;;15.80;63.80;;;;;;4999744;28;20101;-76
2021/11/29 05:56:31;;;;;;;3.53;0.55;;;15.80;63.10;;;;;;4999597;28;20057;-75
2021/11/29 05:58:57;;;;;;;9.30;0.63;;;15.90;63.00;;;;;;4999158;28;20445;-74
2021/11/29 06:01:23;;;;;;;7.60;0.70;;;16.00;63.10;;;;;;4999103;28;20054;-75
2021/11/29 06:03:50;;;;;;;6.88;1.45;;;16.00;63.20;;;;;;4982221;28;20179;-72
2021/11/29 06:06:16;;;;;;;4.50;0.77;;;16.10;63.30;;;;;;4999276;28;20101;-73
2021/11/29 06:08:42;;;;;;;5.57;0.50;;;16.20;63.30;;;;;;4999078;28;20072;-73
2021/11/29 06:11:08;;;;;;;5.38;0.68;;;16.30;63.30;;;;;;4999091;28;20518;-72
2021/11/29 06:13:33;;;;;;;8.95;0.77;;;16.40;63.20;;;;;;4999409;28;20050;-73
2021/11/29 06:15:59;;;;;;;5.25;0.50;;;16.50;63.20;;;;;;4998674;28;20046;-73
2021/11/29 06:18:25;;;;;;;6.43;0.47;;;16.60;63.10;;;;;;4982365;28;20049;-73
2021/11/29 06:20:51;;;;;;;2.45;0.30;;;16.80;62.90;;;;;;4998965;28;20046;-72
2021/11/29 06:23:17;;;;;;;5.15;0.57;;;16.90;62.90;;;;;;4999363;28;20050;-72
2021/11/29 06:25:42;;;;;;;5.40;0.60;;;16.90;62.70;;;;;;4999188;28;20474;-72
2021/11/29 06:28:08;;;;;;;7.10;0.40;;;16.90;62.70;;;;;;4991938;28;20086;-72
2021/11/29 06:30:35;;;;;;;9.10;0.57;;;16.90;62.90;;;;;;4979260;28;20101;-73
2021/11/29 06:33:01;;;;;;;3.75;0.22;;;16.90;63.10;;;;;;4962188;28;20055;-72
2021/11/29 06:35:27;;;;;;;7.38;0.47;;;16.90;63.10;;;;;;4979360;28;20125;-73
2021/11/29 06:38:00;;;;;;;3.42;0.32;;;16.80;63.20;;;;;;4979679;28;20203;-73
2021/11/29 06:40:27;;;;;;;3.30;0.40;;;16.70;63.30;;;;;;4978777;28;20390;-73
2021/11/29 06:42:54;;;;;;;5.45;0.38;;;16.70;63.40;;;;;;4979598;28;20116;-74
2021/11/29 06:45:21;;;;;;;2.58;0.32;;;16.60;63.30;;;;;;4962606;28;20189;-78
2021/11/29 06:47:47;;;;;;;2.40;0.57;;;16.50;63.10;;;;;;4978942;28;20050;-75
2021/11/29 06:50:13;;;;;;;7.68;0.82;;;16.50;63.40;;;;;;4978334;28;20085;-79
2021/11/29 06:52:40;;;;;;;3.50;0.60;;;16.40;63.50;;;;;;4979200;28;20047;-76
2021/11/29 06:55:06;;;;;;;9.43;0.80;;;16.40;63.40;;;;;;4961744;28;20091;-75
2021/11/29 06:57:32;;;;;;;9.77;0.65;;;16.40;63.30;;;;;;4978760;28;20050;-75
2021/11/29 06:59:58;;;;;;;9.40;0.70;;;16.40;63.40;;;;;;4978801;28;20051;-81
2021/11/29 07:02:27;;;;;;;9.73;0.70;;;16.40;63.20;;;;;;4961347;28;20047;-72
2021/11/29 07:04:55;;;;;;;7.88;0.65;;;16.50;62.60;;;;;;4978663;28;20086;-74
2021/11/29 07:07:21;;;;;;;9.43;0.90;;;16.40;62.20;;;;;;4978732;28;20061;-72
2021/11/29 07:09:47;;;;;;;6.63;0.50;;;16.40;62.30;;;;;;4978559;28;20067;-73
2021/11/29 07:12:16;;;;;;;6.85;0.40;;;16.40;62.10;;;;;;4978624;28;20435;-71
2021/11/29 07:14:42;;;;;;;7.18;0.80;;;16.40;61.70;;;;;;4978159;28;20497;-71
2021/11/29 07:17:08;;;;;;;7.40;0.70;;;16.30;61.60;;;;;;4978585;28;20043;-71
2021/11/29 07:19:34;;;;;;;5.70;0.38;;;16.30;61.60;;;;;;4978626;28;20057;-71
2021/11/29 07:21:59;;;;;;;7.93;0.95;;;16.20;61.40;;;;;;4978689;28;20054;-71
2021/11/29 07:24:25;;;;;;;5.72;0.45;;;16.10;61.50;;;;;;4978753;28;20054;-71
2021/11/29 07:26:51;;;;;;;4.95;0.50;;;16.10;61.60;;;;;;4978123;28;20086;-71
2021/11/29 07:29:17;;;;;;;1.17;0.25;;;16.00;62.30;;;;;;4977870;28;20057;-71
2021/11/29 07:31:43;;;;;;;2.05;0.25;;;16.00;61.80;;;;;;4978182;28;20047;-71
2021/11/29 07:34:09;;;;;;;4.05;0.20;;;15.90;61.80;;;;;;4977432;28;20046;-70
2021/11/29 07:36:35;;;;;;;3.90;0.60;;;15.80;61.90;;;;;;4978168;28;20113;-71
2021/11/29 07:39:02;;;;;;;3.42;0.30;;;15.80;61.80;;;;;;4976776;28;20517;-70
2021/11/29 07:41:28;;;;;;;3.55;0.35;;;15.80;61.50;;;;;;4977218;28;20069;-72
2021/11/29 07:43:54;;;;;;;3.38;0.35;;;15.80;61.60;;;;;;4955310;28;20046;-71
2021/11/29 07:46:19;;;;;;;5.63;0.30;;;15.70;61.60;;;;;;4977500;28;20089;-71
2021/11/29 07:48:45;;;;;;;3.92;0.40;;;15.70;61.70;;;;;;4977805;28;20210;-72
2021/11/29 07:51:13;;;;;;;2.78;0.40;;;15.70;61.60;;;;;;4977175;28;20086;-71
2021/11/29 07:53:39;;;;;;;6.43;0.57;;;15.80;61.60;;;;;;4977402;28;20043;-71
2021/11/29 07:56:05;;;;;;;1.38;0.22;;;15.90;61.70;;;;;;4991811;28;20127;-70
2021/11/29 07:58:31;;;;;;;2.47;0.20;;;16.00;61.60;;;;;;4996034;28;20469;-69
2021/11/29 08:00:57;;;;;;;8.43;0.73;;;16.10;61.40;;;;;;4977664;28;20046;-70
2021/11/29 08:03:22;;;;;;;3.30;0.38;;;16.20;61.50;;;;;;4976296;28;20133;-70
2021/11/29 08:05:48;;;;;;;1.25;0.20;;;16.20;61.40;;;;;;4977393;28;20039;-71
2021/11/29 08:08:14;;;;;;;3.05;0.30;;;16.30;61.40;;;;;;4977079;28;20358;-73
2021/11/29 08:10:41;;;;;;;1.65;0.30;;;16.30;61.30;;;;;;4977466;28;20429;-69
2021/11/29 08:13:09;;;;;;;1.85;0.47;;;16.30;61.20;;;;;;4977931;28;20042;-71
2021/11/29 08:15:37;;;;;;;2.05;0.70;;;16.30;61.80;;;;;;4976851;28;20434;-72
2021/11/29 08:18:04;;;;;;;2.88;0.55;;;16.30;61.00;;;;;;4977444;28;20058;-76
2021/11/29 08:20:30;;;;;;;2.75;0.30;;;16.20;60.80;;;;;;4961142;28;20050;-75
2021/11/29 08:22:56;;;;;;;1.55;0.40;;;16.30;61.10;;;;;;4961034;28;20404;-72
2021/11/29 08:25:22;;;;;;;4.05;0.43;;;16.30;61.20;;;;;;4977219;28;20121;-74
2021/11/29 08:27:48;;;;;;;2.05;0.45;;;16.30;61.20;;;;;;4958854;28;20497;-74
2021/11/29 08:30:16;;;;;;;5.68;0.40;;;16.30;61.70;;;;;;4977099;28;20046;-72
2021/11/29 08:32:42;;;;;;;7.20;0.45;;;16.40;61.80;;;;;;4977401;28;20145;-74
2021/11/29 08:35:10;;;;;;;5.53;0.40;;;16.50;61.70;;;;;;4959529;28;20055;-72
2021/11/29 08:37:37;;;;;;;3.55;0.50;;;16.50;62.10;;;;;;4976457;28;20366;-75
2021/11/29 08:40:04;;;;;;;3.30;0.30;;;16.50;61.90;;;;;;4975847;28;20063;-74
2021/11/29 08:42:29;;;;;;;2.72;0.40;;;16.50;62.10;;;;;;4967350;28;20067;-71
2021/11/29 08:44:55;;;;;;;4.20;0.43;;;16.60;62.20;;;;;;4967280;28;20529;-74
2021/11/29 08:47:21;;;;;;;1.35;0.30;;;16.60;62.20;;;;;;4959384;28;20050;-74
2021/11/29 08:49:47;;;;;;;2.58;0.50;;;16.60;62.00;;;;;;4959738;28;20133;-73
2021/11/29 08:52:14;;;;;;;4.90;0.93;;;16.60;62.30;;;;;;4975993;28;20062;-72
2021/11/29 08:54:40;;;;;;;13.77;1.27;;;16.60;62.10;;;;;;4976062;28;20121;-73
2021/11/29 08:57:10;;;;;;;11.55;0.90;;;16.60;61.80;;;;;;4975937;28;20046;-73
2021/11/29 08:59:36;;;;;;;8.25;0.93;;;16.70;60.90;;;;;;4964905;28;20062;-75
2021/11/29 09:02:03;;;;;;;5.13;0.90;;;16.60;61.00;;;;;;4959188;28;20054;-81
2021/11/29 09:04:41;;;;;;;7.75;0.85;;;16.60;60.90;;;;;;4959744;28;20054;-82
2021/11/29 09:07:06;;;;;;;4.10;1.00;;;16.60;61.70;;;;;;4975290;28;20039;-81
2021/11/29 09:09:32;;;;;;;6.13;1.20;;;16.50;61.90;;;;;;4959131;28;20043;-80
2021/11/29 09:12:00;;;;;;;4.72;1.00;;;16.60;61.40;;;;;;4959440;28;20039;-76
2021/11/29 09:14:25;;;;;;;6.70;1.30;;;16.60;61.10;;;;;;4959224;28;20050;-78
2021/11/29 09:16:51;;;;;;;4.50;1.20;;;16.60;60.60;;;;;;4959063;28;20419;-77
2021/11/29 09:19:17;;;;;;;5.97;1.30;;;16.60;60.00;;;;;;4958899;28;20047;-76
2021/11/29 09:21:43;;;;;;;6.70;1.60;;;16.60;59.60;;;;;;4959289;28;20051;-78
2021/11/29 09:24:09;;;;;;;4.45;1.30;;;16.60;59.20;;;;;;4957691;28;20042;-77
2021/11/29 09:26:35;;;;;;;5.70;1.42;;;16.60;58.90;;;;;;4959211;28;20053;-77
2021/11/29 09:29:00;;;;;;;4.97;1.33;;;16.50;58.60;;;;;;4943309;28;20038;-76
2021/11/29 09:31:27;;;;;;;4.45;1.50;;;16.50;58.30;;;;;;4959306;28;20477;-78
2021/11/29 09:33:53;;;;;;;5.18;1.10;;;16.50;57.70;;;;;;4976228;28;20034;-76
2021/11/29 09:36:19;;;;;;;2.33;1.13;;;16.50;57.30;;;;;;4959619;28;20578;-77
2021/11/29 09:38:45;;;;;;;2.58;1.10;;;16.40;56.90;;;;;;4943499;28;20204;-74
2021/11/29 09:41:11;;;;;;;2.22;0.65;;;16.40;56.50;;;;;;4975953;28;20087;-74
2021/11/29 09:43:38;;;;;;;4.15;1.08;;;16.20;56.10;;;;;;4974080;28;20067;-75
2021/11/29 09:46:06;;;;;;;3.53;0.70;;;16.10;56.40;;;;;;4975914;28;20050;-73
2021/11/29 09:48:32;;;;;;;4.97;1.02;;;16.00;56.80;;;;;;4975537;28;20054;-73
2021/11/29 09:50:58;;;;;;;6.50;1.10;;;15.80;57.40;;;;;;4959048;28;20363;-74
2021/11/29 09:53:29;;;;;;;5.97;1.00;;;15.80;58.10;;;;;;4975775;28;20054;-71
2021/11/29 09:55:56;;;;;;;4.65;0.80;;;15.70;58.60;;;;;;4975716;28;20051;-73
2021/11/29 09:58:22;;;;;;;4.38;1.00;;;15.70;59.20;;;;;;4976095;28;20134;-73
2021/11/29 10:00:53;;;;;;;5.65;1.02;;;15.60;59.60;;;;;;4958884;28;20138;-71
2021/11/29 10:03:20;;;;;;;2.72;0.80;;;15.60;60.00;;;;;;4975424;28;20089;-73
2021/11/29 10:05:48;;;;;;;3.70;0.82;;;15.60;60.80;;;;;;4975567;28;20055;-74
2021/11/29 10:08:35;;;;;;;1.80;0.52;;;15.60;60.80;;;;;;4975753;28;20358;-72
2021/11/29 10:11:06;;;;;;;8.20;1.15;;;15.50;61.30;;;;;;4959068;28;20466;-74
2021/11/29 10:13:58;;;;;;;3.90;0.90;;;15.50;61.50;;;;;;4975763;28;20417;-70
2021/11/29 10:16:37;;;;;;;2.47;0.70;;;15.40;61.70;;;;;;4975627;28;20047;-69
2021/11/29 10:19:06;;;;;;;5.15;0.90;;;15.40;62.10;;;;;;4976033;28;20164;-71
2021/11/29 10:21:32;;;;;;;4.30;1.08;;;15.40;62.20;;;;;;4975585;28;20047;-71
2021/11/29 10:23:59;;;;;;;9.68;1.23;;;15.30;62.30;;;;;;4975475;28;20051;-69
2021/11/29 10:26:33;;;;;;;10.07;1.20;;;15.40;61.90;;;;;;4977080;28;20075;-69
2021/11/29 10:29:02;;;;;;;5.82;1.00;;;15.40;61.60;;;;;;4969936;28;20047;-70
2021/11/29 10:31:31;;;;;;;13.65;1.70;;;15.40;61.50;;;;;;4978772;28;20046;-70
2021/11/29 10:34:02;;;;;;;7.07;1.10;;;15.50;61.40;;;;;;4978890;28;20090;-69
2021/11/29 10:36:38;;;;;;;5.40;0.68;;;15.50;61.00;;;;;;4978771;28;20050;-68
2021/11/29 10:39:12;;;;;;;5.50;0.85;;;15.50;60.30;;;;;;4978599;28;20122;-69
2021/11/29 10:41:49;;;;;;;11.07;1.35;;;15.50;59.70;;;;;;4978920;28;20062;-69
2021/11/29 10:44:24;;;;;;;10.63;1.42;;;15.50;59.40;;;;;;4979163;28;20488;-69
2021/11/29 10:46:52;;;;;;;4.97;0.95;;;15.50;59.60;;;;;;4978938;28;20042;-69
2021/11/29 10:49:23;;;;;;;3.78;0.90;;;15.50;60.00;;;;;;4978840;28;20042;-69
2021/11/29 10:51:51;;;;;;;4.70;0.70;;;15.50;60.00;;;;;;4979345;28;20109;-69
2021/11/29 10:54:22;;;;;;;2.67;0.80;;;15.60;60.00;;;;;;4978787;28;20094;-70
2021/11/29 10:56:50;;;;;;;11.98;1.45;;;15.50;59.40;;;;;;4978448;28;20436;-70
2021/11/29 10:59:20;;;;;;;2.45;0.70;;;15.50;59.50;;;;;;4961405;28;20050;-69
2021/11/29 11:01:56;;;;;;;4.85;1.00;;;15.50;58.60;;;;;;4978495;28;20054;-69
2021/11/29 11:04:33;;;;;;;6.68;1.05;;;15.60;58.60;;;;;;4959630;29;20094;-70
2021/11/29 11:07:02;;;;;;;3.00;1.00;;;15.80;59.20;;;;;;4954771;28;20484;-69
2021/11/29 11:09:36;;;;;;;4.90;0.95;;;15.90;59.20;;;;;;4980110;28;20042;-78
2021/11/29 11:12:15;;;;;;;7.47;1.15;;;16.10;59.30;;;;;;4982763;28;20051;-69
2021/11/29 11:14:53;;;;;;;10.68;1.20;;;16.20;59.30;;;;;;4976811;28;20351;-70
2021/11/29 11:17:31;;;;;;;7.53;1.27;;;16.30;59.40;;;;;;4973652;28;20042;-70
2021/11/29 11:20:03;;;;;;;5.25;0.88;;;15.70;62.10;;;;;;4978502;28;20062;-70
2021/11/29 11:22:37;;;;;;;7.30;1.10;;;15.90;61.30;;;;;;4977973;28;20081;-73
2021/11/29 11:25:09;;;;;;;7.00;0.63;;;16.00;61.20;;;;;;4976509;28;20042;-74
2021/11/29 11:27:55;;;;;;;4.15;0.75;;;16.20;61.20;;;;;;4978370;28;20054;-73
2021/11/29 11:30:25;;;;;;;5.15;0.82;;;16.20;61.10;;;;;;4981596;28;20050;-72
2021/11/29 11:32:57;;;;;;;7.15;0.95;;;16.20;61.10;;;;;;4997957;28;20129;-72
2021/11/29 11:35:27;;;;;;;7.55;0.80;;;16.20;61.30;;;;;;4989142;28;20085;-71
2021/11/29 11:37:57;;;;;;;9.00;0.80;;;16.20;61.50;;;;;;4959918;28;20129;-72
2021/11/29 11:40:28;;;;;;;5.90;0.90;;;16.20;61.60;;;;;;4977726;28;20066;-73
2021/11/29 11:42:55;;;;;;;9.63;0.90;;;16.20;61.50;;;;;;4977529;28;20061;-72
2021/11/29 11:45:29;;;;;;;4.93;0.70;;;16.10;61.30;;;;;;4977402;28;20042;-72
2021/11/29 11:47:58;;;;;;;6.95;0.90;;;16.20;61.30;;;;;;4977480;28;20097;-72
2021/11/29 11:50:26;;;;;;;6.28;1.30;;;16.20;61.20;;;;;;4977882;28;20058;-73
2021/11/29 11:52:54;;;;;;;5.60;0.93;;;16.30;61.20;;;;;;4975590;28;20469;-73
2021/11/29 11:55:22;;;;;;;6.03;0.95;;;16.20;61.10;;;;;;4978612;28;20047;-73
2021/11/29 11:57:51;;;;;;;5.32;0.88;;;16.30;61.20;;;;;;4977469;28;20132;-73
2021/11/29 12:00:26;;;;;;;3.22;0.55;;;16.30;61.20;;;;;;4977575;28;20051;-72
2021/11/29 12:03:07;;;;;;;2.65;0.52;;;16.30;61.20;;;;;;4960148;28;20046;-72
2021/11/29 12:05:46;;;;;;;4.57;0.73;;;16.40;61.10;;;;;;4977543;28;20051;-73
2021/11/29 12:08:30;;;;;;;3.38;0.60;;;16.40;61.00;;;;;;4977416;28;20046;-73
2021/11/29 12:10:56;;;;;;;3.67;0.70;;;16.50;61.00;;;;;;4977193;28;20065;-73
2021/11/29 12:13:24;;;;;;;2.95;0.50;;;16.60;60.90;;;;;;4977327;28;20050;-72
2021/11/29 12:15:53;;;;;;;3.67;0.85;;;16.60;60.80;;;;;;4977451;28;20443;-73
2021/11/29 12:18:40;;;;;;;5.35;0.63;;;16.70;60.70;;;;;;4977290;28;20057;-72
2021/11/29 12:21:27;;;;;;;2.75;0.43;;;16.80;60.50;;;;;;4975734;28;20144;-72
2021/11/29 12:24:01;;;;;;;3.72;0.45;;;16.80;60.40;;;;;;4977263;28;20534;-73
2021/11/29 12:26:45;;;;;;;3.85;0.55;;;16.90;59.20;;;;;;4977141;28;20069;-74
2021/11/29 12:29:20;;;;;;;;;;;16.70;61.10;;;;;;4977658;28;20137;-75
2021/11/29 12:31:50;;;;;;;2.90;0.25;;;16.80;60.90;;;;;;4977074;28;20302;-73
2021/11/29 12:34:46;;;;;;;3.22;0.38;;;16.80;60.00;;;;;;4977638;28;20351;-74
2021/11/29 12:37:43;;;;;;;1.88;0.20;;;16.90;59.30;;;;;;4959574;28;20379;-74
2021/11/29 12:40:18;;;;;;;1.42;0.30;;;16.90;59.60;;;;;;4982573;28;20127;-74
2021/11/29 12:42:46;;;;;;;2.35;0.50;;;16.90;58.90;;;;;;4995945;28;20050;-74
2021/11/29 12:45:19;;;;;;;2.80;0.25;;;16.90;58.90;;;;;;4995878;28;20054;-73
2021/11/29 12:47:48;;;;;;;3.38;0.47;;;16.80;58.50;;;;;;4995994;28;20050;-74
2021/11/29 12:50:38;;;;;;;0.45;0.20;;;16.30;62.20;;;;;;4995899;28;20056;-73
2021/11/29 12:53:30;;;;;;;1.58;0.30;;;16.40;59.30;;;;;;4996133;28;20057;-77